sensor_id;sensor_type;location;lat;lon;timestamp;P1;durP1;ratioP1;P2;durP2;ratioP2
47025;SDS011;32783;51.756;-2.556;2022-07-10T00:01:42;2.17;;;1.00;;
47025;SDS011;32783;51.756;-2.556;2022-07-10T00:04:07;1.90;;;1.13;;
47025;SDS011;32783;51.756;-2.556;2022-07-10T00:06:33;1.45;;;1.20;;
47025;SDS011;32783;51.756;-2.556;2022-07-10T00:08:58;6.20;;;1.52;;
47025;SDS011;32783;51.756;-2.556;2022-07-10T00:11:24;2.50;;;1.00;;
47025;SDS011;32783;51.756;-2.556;2022-07-10T00:13:49;3.33;;;1.02;;
47025;SDS011;32783;51.756;-2.556;2022-07-10T00:16:14;2.45;;;1.20;;
47025;SDS011;32783;51.756;-2.556;2022-07-10T00:18:40;2.00;;;1.00;;
47025;SDS011;32783;51.756;-2.556;2022-07-10T00:21:05;2.95;;;0.80;;
47025;SDS011;32783;51.756;-2.556;2022-07-10T00:23:31;1.77;;;1.17;;
47025;SDS011;32783;51.756;-2.556;2022-07-10T00:25:56;3.40;;;1.00;;
47025;SDS011;32783;51.756;-2.556;2022-07-10T00:28:22;2.60;;;1.20;;
47025;SDS011;32783;51.756;-2.556;2022-07-10T00:30:48;1.25;;;0.70;;
47025;SDS011;32783;51.756;-2.556;2022-07-10T00:33:13;2.20;;;0.88;;
47025;SDS011;32783;51.756;-2.556;2022-07-10T00:35:39;1.50;;;0.90;;
47025;SDS011;32783;51.756;-2.556;2022-07-10T00:38:04;2.08;;;0.88;;
47025;SDS011;32783;51.756;-2.556;2022-07-10T00:40:29;1.20;;;0.80;;
47025;SDS011;32783;51.756;-2.556;2022-07-10T00:42:55;1.30;;;0.82;;
47025;SDS011;32783;51.756;-2.556;2022-07-10T00:45:20;3.63;;;1.00;;
47025;SDS011;32783;51.756;-2.556;2022-07-10T00:47:46;1.88;;;0.73;;
47025;SDS011;32783;51.756;-2.556;2022-07-10T00:50:11;1.13;;;0.77;;
47025;SDS011;32783;51.756;-2.556;2022-07-10T00:52:38;5.72;;;0.90;;
47025;SDS011;32783;51.756;-2.556;2022-07-10T00:55:04;1.50;;;0.85;;
47025;SDS011;32783;51.756;-2.556;2022-07-10T00:57:30;1.70;;;0.82;;
47025;SDS011;32783;51.756;-2.556;2022-07-10T00:59:56;1.17;;;0.90;;
47025;SDS011;32783;51.756;-2.556;2022-07-10T01:02:22;3.35;;;0.70;;
47025;SDS011;32783;51.756;-2.556;2022-07-10T01:04:48;0.93;;;0.80;;
47025;SDS011;32783;51.756;-2.556;2022-07-10T01:07:14;1.65;;;0.63;;
47025;SDS011;32783;51.756;-2.556;2022-07-10T01:09:41;1.30;;;0.88;;
47025;SDS011;32783;51.756;-2.556;2022-07-10T01:12:06;2.92;;;0.70;;
47025;SDS011;32783;51.756;-2.556;2022-07-10T01:14:32;1.15;;;0.80;;
47025;SDS011;32783;51.756;-2.556;2022-07-10T01:17:00;0.75;;;0.70;;
47025;SDS011;32783;51.756;-2.556;2022-07-10T01:19:26;2.00;;;0.90;;
47025;SDS011;32783;51.756;-2.556;2022-07-10T01:21:51;2.05;;;0.70;;
47025;SDS011;32783;51.756;-2.556;2022-07-10T01:24:17;0.95;;;0.68;;
47025;SDS011;32783;51.756;-2.556;2022-07-10T01:26:42;1.90;;;0.73;;
47025;SDS011;32783;51.756;-2.556;2022-07-10T01:29:08;0.88;;;0.80;;
47025;SDS011;32783;51.756;-2.556;2022-07-10T01:31:34;1.17;;;0.75;;
47025;SDS011;32783;51.756;-2.556;2022-07-10T01:34:00;1.10;;;0.70;;
47025;SDS011;32783;51.756;-2.556;2022-07-10T01:36:27;1.17;;;0.80;;
47025;SDS011;32783;51.756;-2.556;2022-07-10T01:38:54;2.42;;;1.10;;
47025;SDS011;32783;51.756;-2.556;2022-07-10T01:41:19;1.45;;;0.80;;
47025;SDS011;32783;51.756;-2.556;2022-07-10T01:43:45;1.85;;;0.60;;
47025;SDS011;32783;51.756;-2.556;2022-07-10T01:46:11;4.88;;;1.05;;
47025;SDS011;32783;51.756;-2.556;2022-07-10T01:48:37;1.77;;;1.02;;
47025;SDS011;32783;51.756;-2.556;2022-07-10T01:51:04;1.75;;;0.80;;
47025;SDS011;32783;51.756;-2.556;2022-07-10T01:53:30;1.67;;;0.80;;
47025;SDS011;32783;51.756;-2.556;2022-07-10T01:55:55;1.65;;;0.98;;
47025;SDS011;32783;51.756;-2.556;2022-07-10T01:58:21;1.25;;;0.85;;
47025;SDS011;32783;51.756;-2.556;2022-07-10T02:00:47;0.90;;;0.70;;
47025;SDS011;32783;51.756;-2.556;2022-07-10T02:03:12;1.42;;;0.82;;
47025;SDS011;32783;51.756;-2.556;2022-07-10T02:05:56;1.48;;;0.90;;
47025;SDS011;32783;51.756;-2.556;2022-07-10T02:08:22;1.23;;;0.63;;
47025;SDS011;32783;51.756;-2.556;2022-07-10T02:10:47;1.58;;;0.68;;
47025;SDS011;32783;51.756;-2.556;2022-07-10T02:13:13;1.00;;;0.80;;
47025;SDS011;32783;51.756;-2.556;2022-07-10T02:15:40;2.28;;;0.80;;
47025;SDS011;32783;51.756;-2.556;2022-07-10T02:18:06;2.47;;;0.90;;
47025;SDS011;32783;51.756;-2.556;2022-07-10T02:20:31;1.10;;;0.80;;
47025;SDS011;32783;51.756;-2.556;2022-07-10T02:22:59;2.05;;;0.90;;
47025;SDS011;32783;51.756;-2.556;2022-07-10T02:25:24;0.73;;;0.60;;
47025;SDS011;32783;51.756;-2.556;2022-07-10T02:27:50;1.52;;;0.80;;
47025;SDS011;32783;51.756;-2.556;2022-07-10T02:30:15;2.35;;;0.90;;
47025;SDS011;32783;51.756;-2.556;2022-07-10T02:32:41;1.88;;;0.73;;
47025;SDS011;32783;51.756;-2.556;2022-07-10T02:35:06;0.98;;;0.85;;
47025;SDS011;32783;51.756;-2.556;2022-07-10T02:37:32;1.10;;;0.77;;
47025;SDS011;32783;51.756;-2.556;2022-07-10T02:39:57;1.13;;;0.70;;
47025;SDS011;32783;51.756;-2.556;2022-07-10T02:42:23;0.80;;;0.80;;
47025;SDS011;32783;51.756;-2.556;2022-07-10T02:44:48;1.08;;;0.70;;
47025;SDS011;32783;51.756;-2.556;2022-07-10T02:47:14;1.77;;;0.77;;
47025;SDS011;32783;51.756;-2.556;2022-07-10T02:49:39;2.30;;;0.90;;
47025;SDS011;32783;51.756;-2.556;2022-07-10T02:52:04;1.58;;;0.70;;
47025;SDS011;32783;51.756;-2.556;2022-07-10T02:54:30;2.70;;;0.75;;
47025;SDS011;32783;51.756;-2.556;2022-07-10T02:56:55;2.35;;;1.10;;
47025;SDS011;32783;51.756;-2.556;2022-07-10T02:59:21;3.28;;;0.70;;
47025;SDS011;32783;51.756;-2.556;2022-07-10T03:01:46;1.85;;;1.00;;
47025;SDS011;32783;51.756;-2.556;2022-07-10T03:04:12;1.85;;;0.70;;
47025;SDS011;32783;51.756;-2.556;2022-07-10T03:06:37;2.58;;;1.00;;
47025;SDS011;32783;51.756;-2.556;2022-07-10T03:09:03;1.52;;;0.90;;
47025;SDS011;32783;51.756;-2.556;2022-07-10T03:11:28;1.25;;;0.60;;
47025;SDS011;32783;51.756;-2.556;2022-07-10T03:13:54;2.00;;;0.70;;
47025;SDS011;32783;51.756;-2.556;2022-07-10T03:16:19;1.50;;;0.85;;
47025;SDS011;32783;51.756;-2.556;2022-07-10T03:18:45;2.00;;;0.75;;
47025;SDS011;32783;51.756;-2.556;2022-07-10T03:21:11;0.82;;;0.60;;
47025;SDS011;32783;51.756;-2.556;2022-07-10T03:23:36;2.25;;;0.90;;
47025;SDS011;32783;51.756;-2.556;2022-07-10T03:26:04;1.30;;;0.80;;
47025;SDS011;32783;51.756;-2.556;2022-07-10T03:28:30;1.42;;;0.90;;
47025;SDS011;32783;51.756;-2.556;2022-07-10T03:30:56;1.05;;;0.80;;
47025;SDS011;32783;51.756;-2.556;2022-07-10T03:33:21;0.93;;;0.77;;
47025;SDS011;32783;51.756;-2.556;2022-07-10T03:35:46;1.00;;;0.70;;
47025;SDS011;32783;51.756;-2.556;2022-07-10T03:38:12;1.15;;;0.90;;
47025;SDS011;32783;51.756;-2.556;2022-07-10T03:40:37;1.30;;;0.70;;
47025;SDS011;32783;51.756;-2.556;2022-07-10T03:43:03;4.47;;;0.90;;
47025;SDS011;32783;51.756;-2.556;2022-07-10T03:45:28;1.55;;;0.93;;
47025;SDS011;32783;51.756;-2.556;2022-07-10T03:47:53;1.08;;;0.85;;
47025;SDS011;32783;51.756;-2.556;2022-07-10T03:50:19;2.80;;;1.10;;
47025;SDS011;32783;51.756;-2.556;2022-07-10T03:52:44;1.25;;;0.95;;
47025;SDS011;32783;51.756;-2.556;2022-07-10T03:55:11;1.48;;;0.80;;
47025;SDS011;32783;51.756;-2.556;2022-07-10T03:57:36;2.25;;;0.82;;
47025;SDS011;32783;51.756;-2.556;2022-07-10T04:00:23;2.58;;;0.88;;
47025;SDS011;32783;51.756;-2.556;2022-07-10T04:05:25;0.90;;;0.70;;
47025;SDS011;32783;51.756;-2.556;2022-07-10T04:07:51;0.70;;;0.70;;
47025;SDS011;32783;51.756;-2.556;2022-07-10T04:10:17;1.00;;;0.73;;
47025;SDS011;32783;51.756;-2.556;2022-07-10T04:12:43;1.08;;;0.80;;
47025;SDS011;32783;51.756;-2.556;2022-07-10T04:15:09;1.63;;;0.90;;
47025;SDS011;32783;51.756;-2.556;2022-07-10T04:17:35;2.03;;;0.80;;
47025;SDS011;32783;51.756;-2.556;2022-07-10T04:20:00;0.80;;;0.80;;
47025;SDS011;32783;51.756;-2.556;2022-07-10T04:22:26;1.00;;;0.90;;
47025;SDS011;32783;51.756;-2.556;2022-07-10T04:24:52;1.00;;;0.90;;
47025;SDS011;32783;51.756;-2.556;2022-07-10T04:27:18;0.60;;;0.60;;
47025;SDS011;32783;51.756;-2.556;2022-07-10T04:29:44;2.05;;;0.80;;
47025;SDS011;32783;51.756;-2.556;2022-07-10T04:32:09;1.10;;;0.90;;
47025;SDS011;32783;51.756;-2.556;2022-07-10T04:34:35;0.90;;;0.70;;
47025;SDS011;32783;51.756;-2.556;2022-07-10T04:37:00;1.35;;;0.80;;
47025;SDS011;32783;51.756;-2.556;2022-07-10T04:39:25;0.93;;;0.80;;
47025;SDS011;32783;51.756;-2.556;2022-07-10T04:41:51;1.13;;;0.90;;
47025;SDS011;32783;51.756;-2.556;2022-07-10T04:44:18;1.33;;;0.90;;
47025;SDS011;32783;51.756;-2.556;2022-07-10T04:46:43;1.67;;;1.17;;
47025;SDS011;32783;51.756;-2.556;2022-07-10T04:49:09;1.00;;;0.85;;
47025;SDS011;32783;51.756;-2.556;2022-07-10T04:51:34;1.02;;;0.80;;
47025;SDS011;32783;51.756;-2.556;2022-07-10T04:54:00;1.00;;;0.80;;
47025;SDS011;32783;51.756;-2.556;2022-07-10T04:56:25;1.15;;;0.90;;
47025;SDS011;32783;51.756;-2.556;2022-07-10T04:58:51;1.20;;;0.77;;
47025;SDS011;32783;51.756;-2.556;2022-07-10T05:01:16;0.80;;;0.80;;
47025;SDS011;32783;51.756;-2.556;2022-07-10T05:03:42;0.88;;;0.88;;
47025;SDS011;32783;51.756;-2.556;2022-07-10T05:06:07;1.63;;;0.80;;
47025;SDS011;32783;51.756;-2.556;2022-07-10T05:08:33;1.38;;;0.80;;
47025;SDS011;32783;51.756;-2.556;2022-07-10T05:10:58;2.17;;;0.90;;
47025;SDS011;32783;51.756;-2.556;2022-07-10T05:13:23;1.13;;;0.80;;
47025;SDS011;32783;51.756;-2.556;2022-07-10T05:15:49;1.40;;;0.80;;
47025;SDS011;32783;51.756;-2.556;2022-07-10T05:18:15;1.00;;;0.75;;
47025;SDS011;32783;51.756;-2.556;2022-07-10T05:20:40;1.70;;;0.90;;
47025;SDS011;32783;51.756;-2.556;2022-07-10T05:23:08;1.23;;;0.80;;
47025;SDS011;32783;51.756;-2.556;2022-07-10T05:25:34;1.67;;;0.80;;
47025;SDS011;32783;51.756;-2.556;2022-07-10T05:27:59;1.58;;;1.00;;
47025;SDS011;32783;51.756;-2.556;2022-07-10T05:30:25;0.80;;;0.77;;
47025;SDS011;32783;51.756;-2.556;2022-07-10T05:32:50;1.20;;;1.00;;
47025;SDS011;32783;51.756;-2.556;2022-07-10T05:35:15;2.38;;;1.17;;
47025;SDS011;32783;51.756;-2.556;2022-07-10T05:37:41;1.77;;;1.10;;
47025;SDS011;32783;51.756;-2.556;2022-07-10T05:40:07;1.80;;;0.90;;
47025;SDS011;32783;51.756;-2.556;2022-07-10T05:42:33;0.93;;;0.70;;
47025;SDS011;32783;51.756;-2.556;2022-07-10T05:44:59;1.17;;;0.70;;
47025;SDS011;32783;51.756;-2.556;2022-07-10T05:47:24;1.10;;;0.90;;
47025;SDS011;32783;51.756;-2.556;2022-07-10T05:49:50;1.67;;;1.45;;
47025;SDS011;32783;51.756;-2.556;2022-07-10T05:52:15;1.23;;;1.00;;
47025;SDS011;32783;51.756;-2.556;2022-07-10T05:54:40;1.25;;;0.85;;
47025;SDS011;32783;51.756;-2.556;2022-07-10T05:57:06;1.33;;;0.93;;
47025;SDS011;32783;51.756;-2.556;2022-07-10T05:59:34;2.58;;;0.90;;
47025;SDS011;32783;51.756;-2.556;2022-07-10T06:02:00;1.75;;;1.00;;
47025;SDS011;32783;51.756;-2.556;2022-07-10T06:04:26;3.45;;;1.20;;
47025;SDS011;32783;51.756;-2.556;2022-07-10T06:06:52;1.13;;;1.02;;
47025;SDS011;32783;51.756;-2.556;2022-07-10T06:09:17;1.15;;;0.90;;
47025;SDS011;32783;51.756;-2.556;2022-07-10T06:11:43;1.02;;;0.93;;
47025;SDS011;32783;51.756;-2.556;2022-07-10T06:14:11;1.25;;;1.02;;
47025;SDS011;32783;51.756;-2.556;2022-07-10T06:16:37;1.67;;;1.00;;
47025;SDS011;32783;51.756;-2.556;2022-07-10T06:19:02;1.08;;;0.98;;
47025;SDS011;32783;51.756;-2.556;2022-07-10T06:21:27;1.52;;;0.98;;
47025;SDS011;32783;51.756;-2.556;2022-07-10T06:23:53;1.02;;;0.73;;
47025;SDS011;32783;51.756;-2.556;2022-07-10T06:26:18;1.63;;;0.80;;
47025;SDS011;32783;51.756;-2.556;2022-07-10T06:28:44;2.03;;;1.10;;
47025;SDS011;32783;51.756;-2.556;2022-07-10T06:31:09;1.35;;;1.15;;
47025;SDS011;32783;51.756;-2.556;2022-07-10T06:33:34;2.97;;;2.45;;
47025;SDS011;32783;51.756;-2.556;2022-07-10T06:36:03;1.60;;;1.50;;
47025;SDS011;32783;51.756;-2.556;2022-07-10T06:38:28;1.38;;;1.15;;
47025;SDS011;32783;51.756;-2.556;2022-07-10T06:40:54;2.03;;;1.45;;
47025;SDS011;32783;51.756;-2.556;2022-07-10T06:43:19;1.88;;;1.65;;
47025;SDS011;32783;51.756;-2.556;2022-07-10T06:45:45;3.58;;;2.92;;
47025;SDS011;32783;51.756;-2.556;2022-07-10T06:48:10;2.70;;;2.17;;
47025;SDS011;32783;51.756;-2.556;2022-07-10T06:50:36;2.72;;;2.35;;
47025;SDS011;32783;51.756;-2.556;2022-07-10T06:53:02;3.75;;;3.15;;
47025;SDS011;32783;51.756;-2.556;2022-07-10T06:55:28;5.22;;;3.40;;
47025;SDS011;32783;51.756;-2.556;2022-07-10T06:57:54;3.85;;;2.70;;
47025;SDS011;32783;51.756;-2.556;2022-07-10T07:00:19;4.72;;;4.28;;
47025;SDS011;32783;51.756;-2.556;2022-07-10T07:02:45;5.15;;;4.30;;
47025;SDS011;32783;51.756;-2.556;2022-07-10T07:05:11;4.93;;;3.97;;
47025;SDS011;32783;51.756;-2.556;2022-07-10T07:07:37;4.93;;;4.50;;
47025;SDS011;32783;51.756;-2.556;2022-07-10T07:10:03;7.57;;;6.75;;
47025;SDS011;32783;51.756;-2.556;2022-07-10T07:12:29;7.40;;;5.55;;
47025;SDS011;32783;51.756;-2.556;2022-07-10T07:14:54;6.95;;;6.25;;
47025;SDS011;32783;51.756;-2.556;2022-07-10T07:17:19;8.98;;;7.10;;
47025;SDS011;32783;51.756;-2.556;2022-07-10T07:19:50;8.00;;;7.30;;
47025;SDS011;32783;51.756;-2.556;2022-07-10T07:22:34;7.80;;;7.10;;
47025;SDS011;32783;51.756;-2.556;2022-07-10T07:25:18;7.95;;;7.15;;
47025;SDS011;32783;51.756;-2.556;2022-07-10T07:27:44;7.93;;;7.13;;
47025;SDS011;32783;51.756;-2.556;2022-07-10T07:30:13;8.75;;;7.85;;
47025;SDS011;32783;51.756;-2.556;2022-07-10T07:32:40;9.27;;;7.60;;
47025;SDS011;32783;51.756;-2.556;2022-07-10T07:35:06;8.20;;;7.40;;
47025;SDS011;32783;51.756;-2.556;2022-07-10T07:40:04;10.30;;;7.38;;
47025;SDS011;32783;51.756;-2.556;2022-07-10T07:42:31;8.60;;;7.80;;
47025;SDS011;32783;51.756;-2.556;2022-07-10T07:44:56;8.27;;;7.47;;
47025;SDS011;32783;51.756;-2.556;2022-07-10T07:47:22;7.65;;;6.85;;
47025;SDS011;32783;51.756;-2.556;2022-07-10T07:49:47;8.85;;;7.35;;
47025;SDS011;32783;51.756;-2.556;2022-07-10T07:52:13;9.43;;;6.95;;
47025;SDS011;32783;51.756;-2.556;2022-07-10T07:54:39;8.10;;;7.40;;
47025;SDS011;32783;51.756;-2.556;2022-07-10T07:57:04;7.97;;;7.18;;
47025;SDS011;32783;51.756;-2.556;2022-07-10T07:59:30;8.32;;;7.53;;
47025;SDS011;32783;51.756;-2.556;2022-07-10T08:01:56;7.60;;;6.90;;
47025;SDS011;32783;51.756;-2.556;2022-07-10T08:04:21;7.32;;;6.63;;
47025;SDS011;32783;51.756;-2.556;2022-07-10T08:06:46;8.07;;;7.38;;
47025;SDS011;32783;51.756;-2.556;2022-07-10T08:09:12;8.90;;;7.32;;
47025;SDS011;32783;51.756;-2.556;2022-07-10T08:11:37;7.82;;;6.05;;
47025;SDS011;32783;51.756;-2.556;2022-07-10T08:14:03;8.45;;;6.55;;
47025;SDS011;32783;51.756;-2.556;2022-07-10T08:16:28;6.95;;;6.07;;
47025;SDS011;32783;51.756;-2.556;2022-07-10T08:18:54;7.18;;;6.53;;
47025;SDS011;32783;51.756;-2.556;2022-07-10T08:21:19;6.25;;;5.75;;
47025;SDS011;32783;51.756;-2.556;2022-07-10T08:23:45;8.05;;;6.82;;
47025;SDS011;32783;51.756;-2.556;2022-07-10T08:26:11;7.90;;;6.80;;
47025;SDS011;32783;51.756;-2.556;2022-07-10T08:28:36;7.47;;;6.78;;
47025;SDS011;32783;51.756;-2.556;2022-07-10T08:31:01;7.45;;;6.75;;
47025;SDS011;32783;51.756;-2.556;2022-07-10T08:33:27;9.07;;;6.13;;
47025;SDS011;32783;51.756;-2.556;2022-07-10T08:35:53;7.43;;;6.10;;
47025;SDS011;32783;51.756;-2.556;2022-07-10T08:38:23;6.55;;;5.88;;
47025;SDS011;32783;51.756;-2.556;2022-07-10T08:40:49;6.32;;;5.68;;
47025;SDS011;32783;51.756;-2.556;2022-07-10T08:43:15;7.28;;;6.40;;
47025;SDS011;32783;51.756;-2.556;2022-07-10T08:45:41;7.22;;;5.97;;
47025;SDS011;32783;51.756;-2.556;2022-07-10T08:48:06;7.63;;;6.43;;
47025;SDS011;32783;51.756;-2.556;2022-07-10T08:50:33;6.60;;;5.82;;
47025;SDS011;32783;51.756;-2.556;2022-07-10T08:53:09;6.43;;;5.75;;
47025;SDS011;32783;51.756;-2.556;2022-07-10T08:55:37;6.88;;;6.18;;
47025;SDS011;32783;51.756;-2.556;2022-07-10T08:58:03;6.88;;;5.97;;
47025;SDS011;32783;51.756;-2.556;2022-07-10T09:00:31;6.13;;;5.53;;
47025;SDS011;32783;51.756;-2.556;2022-07-10T09:02:57;6.68;;;5.95;;
47025;SDS011;32783;51.756;-2.556;2022-07-10T09:05:23;7.38;;;6.20;;
47025;SDS011;32783;51.756;-2.556;2022-07-10T09:07:49;7.95;;;6.75;;
47025;SDS011;32783;51.756;-2.556;2022-07-10T09:10:15;6.38;;;5.43;;
47025;SDS011;32783;51.756;-2.556;2022-07-10T09:15:28;5.85;;;5.35;;
47025;SDS011;32783;51.756;-2.556;2022-07-10T09:17:58;5.28;;;4.78;;
47025;SDS011;32783;51.756;-2.556;2022-07-10T09:20:35;5.80;;;5.30;;
47025;SDS011;32783;51.756;-2.556;2022-07-10T09:23:15;5.43;;;4.88;;
47025;SDS011;32783;51.756;-2.556;2022-07-10T09:25:45;5.20;;;4.70;;
47025;SDS011;32783;51.756;-2.556;2022-07-10T09:28:13;4.95;;;4.45;;
47025;SDS011;32783;51.756;-2.556;2022-07-10T09:30:41;6.55;;;5.28;;
47025;SDS011;32783;51.756;-2.556;2022-07-10T09:35:57;7.28;;;5.30;;
47025;SDS011;32783;51.756;-2.556;2022-07-10T09:44:02;6.75;;;5.10;;
47025;SDS011;32783;51.756;-2.556;2022-07-10T09:46:32;8.07;;;4.97;;
47025;SDS011;32783;51.756;-2.556;2022-07-10T09:49:14;5.78;;;4.93;;
47025;SDS011;32783;51.756;-2.556;2022-07-10T09:51:40;7.13;;;4.93;;
47025;SDS011;32783;51.756;-2.556;2022-07-10T09:54:08;7.20;;;5.38;;
47025;SDS011;32783;51.756;-2.556;2022-07-10T09:56:41;7.57;;;4.88;;
47025;SDS011;32783;51.756;-2.556;2022-07-10T09:59:12;5.03;;;4.18;;
47025;SDS011;32783;51.756;-2.556;2022-07-10T10:01:45;5.53;;;4.65;;
47025;SDS011;32783;51.756;-2.556;2022-07-10T10:04:12;7.18;;;4.70;;
47025;SDS011;32783;51.756;-2.556;2022-07-10T10:06:39;6.22;;;5.22;;
47025;SDS011;32783;51.756;-2.556;2022-07-10T10:09:24;5.85;;;5.10;;
47025;SDS011;32783;51.756;-2.556;2022-07-10T10:12:01;5.60;;;4.97;;
47025;SDS011;32783;51.756;-2.556;2022-07-10T10:14:30;5.90;;;4.50;;
47025;SDS011;32783;51.756;-2.556;2022-07-10T10:16:57;6.72;;;4.88;;
47025;SDS011;32783;51.756;-2.556;2022-07-10T10:19:23;5.25;;;4.75;;
47025;SDS011;32783;51.756;-2.556;2022-07-10T10:22:08;6.32;;;4.97;;
47025;SDS011;32783;51.756;-2.556;2022-07-10T10:24:33;5.00;;;4.50;;
47025;SDS011;32783;51.756;-2.556;2022-07-10T10:27:00;5.00;;;4.60;;
47025;SDS011;32783;51.756;-2.556;2022-07-10T10:29:26;6.20;;;4.18;;
47025;SDS011;32783;51.756;-2.556;2022-07-10T10:31:51;5.85;;;4.68;;
47025;SDS011;32783;51.756;-2.556;2022-07-10T10:34:39;9.70;;;4.95;;
47025;SDS011;32783;51.756;-2.556;2022-07-10T10:37:14;4.82;;;4.32;;
47025;SDS011;32783;51.756;-2.556;2022-07-10T10:39:53;4.85;;;4.43;;
47025;SDS011;32783;51.756;-2.556;2022-07-10T10:42:36;4.70;;;4.22;;
47025;SDS011;32783;51.756;-2.556;2022-07-10T10:48:00;4.85;;;4.45;;
47025;SDS011;32783;51.756;-2.556;2022-07-10T10:56:20;4.93;;;4.43;;
47025;SDS011;32783;51.756;-2.556;2022-07-10T10:58:44;6.00;;;4.55;;
47025;SDS011;32783;51.756;-2.556;2022-07-10T11:09:41;5.20;;;4.45;;
47025;SDS011;32783;51.756;-2.556;2022-07-10T11:12:04;6.40;;;4.13;;
47025;SDS011;32783;51.756;-2.556;2022-07-10T11:14:37;4.78;;;4.28;;
47025;SDS011;32783;51.756;-2.556;2022-07-10T11:17:07;4.53;;;4.13;;
47025;SDS011;32783;51.756;-2.556;2022-07-10T11:19:34;4.43;;;3.97;;
47025;SDS011;32783;51.756;-2.556;2022-07-10T11:22:06;4.22;;;3.92;;
47025;SDS011;32783;51.756;-2.556;2022-07-10T11:30:42;5.27;;;4.40;;
47025;SDS011;32783;51.756;-2.556;2022-07-10T11:33:08;4.63;;;4.00;;
47025;SDS011;32783;51.756;-2.556;2022-07-10T11:35:34;4.75;;;4.28;;
47025;SDS011;32783;51.756;-2.556;2022-07-10T11:37:59;5.20;;;4.05;;
47025;SDS011;32783;51.756;-2.556;2022-07-10T11:40:25;4.60;;;4.20;;
47025;SDS011;32783;51.756;-2.556;2022-07-10T11:42:54;4.28;;;3.88;;
47025;SDS011;32783;51.756;-2.556;2022-07-10T11:45:30;4.45;;;4.05;;
47025;SDS011;32783;51.756;-2.556;2022-07-10T11:47:57;3.90;;;3.60;;
47025;SDS011;32783;51.756;-2.556;2022-07-10T11:50:23;4.20;;;3.78;;
47025;SDS011;32783;51.756;-2.556;2022-07-10T11:52:49;4.38;;;3.95;;
47025;SDS011;32783;51.756;-2.556;2022-07-10T11:55:16;4.20;;;3.83;;
47025;SDS011;32783;51.756;-2.556;2022-07-10T11:57:45;6.00;;;3.75;;
47025;SDS011;32783;51.756;-2.556;2022-07-10T12:00:26;3.80;;;3.45;;
47025;SDS011;32783;51.756;-2.556;2022-07-10T12:02:53;4.03;;;3.65;;
47025;SDS011;32783;51.756;-2.556;2022-07-10T12:05:29;4.32;;;3.92;;
47025;SDS011;32783;51.756;-2.556;2022-07-10T12:07:55;3.83;;;3.53;;
47025;SDS011;32783;51.756;-2.556;2022-07-10T12:10:21;5.38;;;3.40;;
47025;SDS011;32783;51.756;-2.556;2022-07-10T12:12:51;3.90;;;3.50;;
47025;SDS011;32783;51.756;-2.556;2022-07-10T12:15:35;4.50;;;3.78;;
47025;SDS011;32783;51.756;-2.556;2022-07-10T12:18:02;3.95;;;3.63;;
47025;SDS011;32783;51.756;-2.556;2022-07-10T12:20:29;5.15;;;3.72;;
47025;SDS011;32783;51.756;-2.556;2022-07-10T12:22:54;3.42;;;3.13;;
47025;SDS011;32783;51.756;-2.556;2022-07-10T12:25:20;4.70;;;3.80;;
47025;SDS011;32783;51.756;-2.556;2022-07-10T12:27:46;5.55;;;3.65;;
47025;SDS011;32783;51.756;-2.556;2022-07-10T12:30:11;3.60;;;3.30;;
47025;SDS011;32783;51.756;-2.556;2022-07-10T12:32:37;3.92;;;3.53;;
47025;SDS011;32783;51.756;-2.556;2022-07-10T12:35:02;3.38;;;3.08;;
47025;SDS011;32783;51.756;-2.556;2022-07-10T12:37:28;4.00;;;3.60;;
47025;SDS011;32783;51.756;-2.556;2022-07-10T12:39:53;3.80;;;3.40;;
47025;SDS011;32783;51.756;-2.556;2022-07-10T12:42:25;3.15;;;2.85;;
47025;SDS011;32783;51.756;-2.556;2022-07-10T12:44:54;3.40;;;3.08;;
47025;SDS011;32783;51.756;-2.556;2022-07-10T12:47:42;3.47;;;3.17;;
47025;SDS011;32783;51.756;-2.556;2022-07-10T12:50:09;3.95;;;3.20;;
47025;SDS011;32783;51.756;-2.556;2022-07-10T12:52:38;3.63;;;3.28;;
47025;SDS011;32783;51.756;-2.556;2022-07-10T13:00:29;7.63;;;3.70;;
47025;SDS011;32783;51.756;-2.556;2022-07-10T13:03:08;3.58;;;3.28;;
47025;SDS011;32783;51.756;-2.556;2022-07-10T13:05:36;5.47;;;3.35;;
47025;SDS011;32783;51.756;-2.556;2022-07-10T13:08:15;5.82;;;4.43;;
47025;SDS011;32783;51.756;-2.556;2022-07-10T13:10:54;5.25;;;3.38;;
47025;SDS011;32783;51.756;-2.556;2022-07-10T13:13:20;5.47;;;3.00;;
47025;SDS011;32783;51.756;-2.556;2022-07-10T13:15:46;4.13;;;3.72;;
47025;SDS011;32783;51.756;-2.556;2022-07-10T13:18:19;4.00;;;3.47;;
47025;SDS011;32783;51.756;-2.556;2022-07-10T13:20:46;3.35;;;3.03;;
47025;SDS011;32783;51.756;-2.556;2022-07-10T13:23:13;4.40;;;3.08;;
47025;SDS011;32783;51.756;-2.556;2022-07-10T13:25:40;6.55;;;3.53;;
47025;SDS011;32783;51.756;-2.556;2022-07-10T13:28:11;3.20;;;2.90;;
47025;SDS011;32783;51.756;-2.556;2022-07-10T13:30:37;4.55;;;3.50;;
47025;SDS011;32783;51.756;-2.556;2022-07-10T13:33:02;4.93;;;3.17;;
47025;SDS011;32783;51.756;-2.556;2022-07-10T13:35:31;3.17;;;2.88;;
47025;SDS011;32783;51.756;-2.556;2022-07-10T13:37:58;4.45;;;3.05;;
47025;SDS011;32783;51.756;-2.556;2022-07-10T13:40:28;7.18;;;3.35;;
47025;SDS011;32783;51.756;-2.556;2022-07-10T13:42:55;6.03;;;3.38;;
47025;SDS011;32783;51.756;-2.556;2022-07-10T13:45:22;6.28;;;3.03;;
47025;SDS011;32783;51.756;-2.556;2022-07-10T13:47:49;8.80;;;3.90;;
47025;SDS011;32783;51.756;-2.556;2022-07-10T13:50:15;4.38;;;2.63;;
47025;SDS011;32783;51.756;-2.556;2022-07-10T13:52:40;3.90;;;2.78;;
47025;SDS011;32783;51.756;-2.556;2022-07-10T13:55:06;4.70;;;2.88;;
47025;SDS011;32783;51.756;-2.556;2022-07-10T13:57:32;3.70;;;2.72;;
47025;SDS011;32783;51.756;-2.556;2022-07-10T13:59:58;2.80;;;2.50;;
47025;SDS011;32783;51.756;-2.556;2022-07-10T14:02:23;3.78;;;2.45;;
47025;SDS011;32783;51.756;-2.556;2022-07-10T14:04:48;2.83;;;2.60;;
47025;SDS011;32783;51.756;-2.556;2022-07-10T14:07:14;3.17;;;2.63;;
47025;SDS011;32783;51.756;-2.556;2022-07-10T14:09:39;3.00;;;2.80;;
47025;SDS011;32783;51.756;-2.556;2022-07-10T14:12:05;5.43;;;2.60;;
47025;SDS011;32783;51.756;-2.556;2022-07-10T14:14:30;3.75;;;2.90;;
47025;SDS011;32783;51.756;-2.556;2022-07-10T14:16:56;3.05;;;2.65;;
47025;SDS011;32783;51.756;-2.556;2022-07-10T14:19:21;5.35;;;2.92;;
47025;SDS011;32783;51.756;-2.556;2022-07-10T14:21:47;2.60;;;2.35;;
47025;SDS011;32783;51.756;-2.556;2022-07-10T14:24:12;2.75;;;2.55;;
47025;SDS011;32783;51.756;-2.556;2022-07-10T14:26:38;2.65;;;2.33;;
47025;SDS011;32783;51.756;-2.556;2022-07-10T14:29:03;2.85;;;2.30;;
47025;SDS011;32783;51.756;-2.556;2022-07-10T14:31:29;2.60;;;2.40;;
47025;SDS011;32783;51.756;-2.556;2022-07-10T14:33:55;2.92;;;2.42;;
47025;SDS011;32783;51.756;-2.556;2022-07-10T14:36:20;3.08;;;2.13;;
47025;SDS011;32783;51.756;-2.556;2022-07-10T14:38:51;3.13;;;2.25;;
47025;SDS011;32783;51.756;-2.556;2022-07-10T14:41:17;2.53;;;2.30;;
47025;SDS011;32783;51.756;-2.556;2022-07-10T14:43:43;2.38;;;2.08;;
47025;SDS011;32783;51.756;-2.556;2022-07-10T14:46:08;3.17;;;2.13;;
47025;SDS011;32783;51.756;-2.556;2022-07-10T14:48:34;3.67;;;2.42;;
47025;SDS011;32783;51.756;-2.556;2022-07-10T14:51:01;2.83;;;2.53;;
47025;SDS011;32783;51.756;-2.556;2022-07-10T14:53:27;2.70;;;2.22;;
47025;SDS011;32783;51.756;-2.556;2022-07-10T14:55:52;4.25;;;2.35;;
47025;SDS011;32783;51.756;-2.556;2022-07-10T14:58:18;3.15;;;1.85;;
47025;SDS011;32783;51.756;-2.556;2022-07-10T15:00:43;2.97;;;2.33;;
47025;SDS011;32783;51.756;-2.556;2022-07-10T15:03:08;4.35;;;2.10;;
47025;SDS011;32783;51.756;-2.556;2022-07-10T15:05:34;2.80;;;2.30;;
47025;SDS011;32783;51.756;-2.556;2022-07-10T15:08:00;2.05;;;1.95;;
47025;SDS011;32783;51.756;-2.556;2022-07-10T15:10:27;2.83;;;2.00;;
47025;SDS011;32783;51.756;-2.556;2022-07-10T15:12:53;3.55;;;2.10;;
47025;SDS011;32783;51.756;-2.556;2022-07-10T15:15:18;2.20;;;2.00;;
47025;SDS011;32783;51.756;-2.556;2022-07-10T15:17:44;2.15;;;1.90;;